Vermontville, Michigan
Current Conditions -  °F | °C
As of 3:55 PM on Tuesday 21 Oct 2014 (Local Time) from KFPK Reporting Station
Overcast Overcast  
Wind Chill: 44°   Ceiling: 3600
Heat Index: 48°   Visibility: 10mi
Dew Point: 37°   Wind: 12mph
Humidity: 66%   Direction: 340°NNW
Pressure: 30.11"   Gusts: NA
Location:  42.63°N, 85.02°W
Report Text: KFPK 211955Z AUTO 34010KT 10SM SCT028 OVC036 09/03 A3011 RMK AO2 T00910030
Loading
Personal Weather Stations






























Interactive Weather Map
Tropical Storm Tracking
New forecast layout! Learn more

10-Day Weather Forecast

Advertisements
Track Severe Weather on mobile